createdAt,value
2023-01-10T00:00:08.524Z,3.73
2023-01-10T00:02:38.119Z,3.70
2023-01-10T00:05:06.952Z,3.43
2023-01-10T00:07:34.851Z,3.67
2023-01-10T00:10:02.761Z,2.87
2023-01-10T00:12:48.560Z,3.17
2023-01-10T00:15:16.712Z,3.03
2023-01-10T00:17:45.889Z,3.23
2023-01-10T00:20:14.433Z,3.00
2023-01-10T00:22:42.338Z,3.13
2023-01-10T00:25:10.451Z,2.67
2023-01-10T00:27:38.320Z,3.00
2023-01-10T00:30:13.847Z,2.77
2023-01-10T00:32:42.728Z,3.00
2023-01-10T00:35:12.987Z,3.43
2023-01-10T00:37:41.417Z,2.97
2023-01-10T00:40:11.717Z,3.00
2023-01-10T00:42:57.308Z,2.73
2023-01-10T00:45:26.717Z,2.63
2023-01-10T00:47:54.813Z,3.00
2023-01-10T00:50:24.039Z,2.50
2023-01-10T00:52:52.025Z,3.43
2023-01-10T00:55:19.993Z,2.50
2023-01-10T00:57:47.777Z,2.13
2023-01-10T01:00:16.202Z,2.20
2023-01-10T01:02:44.120Z,1.90
2023-01-10T01:05:12.183Z,1.70
2023-01-10T01:07:41.408Z,2.07
2023-01-10T01:10:28.485Z,1.80
2023-01-10T01:12:57.376Z,2.03
2023-01-10T01:15:26.652Z,1.77
2023-01-10T01:17:54.686Z,4.00
2023-01-10T01:20:22.501Z,2.93
2023-01-10T01:22:51.636Z,1.90
2023-01-10T01:25:19.589Z,1.70
2023-01-10T01:27:47.423Z,2.00
2023-01-10T01:30:16.106Z,1.80
2023-01-10T01:32:43.987Z,1.97
2023-01-10T01:35:15.034Z,2.00
2023-01-10T01:37:43.283Z,1.80
2023-01-10T01:40:14.516Z,1.77
2023-01-10T01:42:43.385Z,1.83
2023-01-10T01:45:34.178Z,1.80
2023-01-10T01:48:09.040Z,2.23
2023-01-10T01:50:42.675Z,1.50
2023-01-10T01:53:15.335Z,1.80
2023-01-10T01:55:47.327Z,1.80
2023-01-10T01:58:18.623Z,2.10
2023-01-10T02:00:46.595Z,1.90
2023-01-10T02:03:17.759Z,1.80
2023-01-10T02:05:46.360Z,1.97
2023-01-10T02:08:15.023Z,2.07
2023-01-10T02:10:49.957Z,1.60
2023-01-10T02:13:20.581Z,2.10
2023-01-10T02:15:48.581Z,1.83
2023-01-10T02:18:16.495Z,2.03
2023-01-10T02:21:00.032Z,1.97
2023-01-10T02:23:48.822Z,2.40
2023-01-10T02:26:51.682Z,2.27
2023-01-10T02:29:47.158Z,2.20
2023-01-10T02:32:41.712Z,2.30
2023-01-10T02:35:29.699Z,2.30
2023-01-10T02:38:06.591Z,2.17
2023-01-10T02:40:46.045Z,2.70
2023-01-10T02:43:18.504Z,2.10
2023-01-10T02:45:51.445Z,2.37
2023-01-10T02:48:22.469Z,1.97
2023-01-10T02:51:03.065Z,2.17
2023-01-10T02:53:35.509Z,2.17
2023-01-10T02:56:41.948Z,1.90
2023-01-10T02:59:44.020Z,1.87
2023-01-10T03:02:22.345Z,2.10
2023-01-10T03:04:57.635Z,1.97
2023-01-10T03:07:33.498Z,2.17
2023-01-10T03:10:07.613Z,1.93
2023-01-10T03:12:42.061Z,2.63
2023-01-10T03:15:13.710Z,1.90
2023-01-10T03:17:44.321Z,2.00
2023-01-10T03:20:14.138Z,2.20
2023-01-10T03:22:43.498Z,1.77
2023-01-10T03:25:15.356Z,1.93
2023-01-10T03:27:53.042Z,1.80
2023-01-10T03:30:28.118Z,1.90
2023-01-10T03:32:58.044Z,1.60
2023-01-10T03:35:36.420Z,1.77
2023-01-10T03:38:08.792Z,1.80
2023-01-10T03:40:44.814Z,2.10
2023-01-10T03:43:37.776Z,1.83
2023-01-10T03:46:09.806Z,2.10
2023-01-10T03:48:42.485Z,3.20
2023-01-10T03:51:13.715Z,2.30
2023-01-10T03:53:41.643Z,2.40
2023-01-10T03:56:13.783Z,2.40
2023-01-10T03:58:42.033Z,2.20
2023-01-10T04:01:10.064Z,2.00
2023-01-10T04:03:38.139Z,2.30
2023-01-10T04:06:06.551Z,1.80
2023-01-10T04:08:35.748Z,1.73
2023-01-10T04:11:04.419Z,1.70
2023-01-10T04:13:32.213Z,1.60
2023-01-10T04:16:00.934Z,3.00
2023-01-10T04:18:28.837Z,2.30
2023-01-10T04:20:56.735Z,1.73
2023-01-10T04:23:24.620Z,1.80
2023-01-10T04:25:53.830Z,1.63
2023-01-10T04:28:23.814Z,1.60
2023-01-10T04:30:52.277Z,1.50
2023-01-10T04:33:20.083Z,1.60
2023-01-10T04:35:51.682Z,1.50
2023-01-10T04:38:20.105Z,1.60
2023-01-10T04:40:54.982Z,1.47
2023-01-10T04:43:23.230Z,1.60
2023-01-10T04:45:51.175Z,1.80
2023-01-10T04:48:19.377Z,1.50
2023-01-10T04:50:51.614Z,1.40
2023-01-10T04:53:20.104Z,1.63
2023-01-10T04:55:48.224Z,1.60
2023-01-10T04:58:17.840Z,2.03
2023-01-10T05:00:45.706Z,2.27
2023-01-10T05:03:13.705Z,1.70
2023-01-10T05:05:41.687Z,2.00
2023-01-10T05:08:09.499Z,3.00
2023-01-10T05:10:37.331Z,1.80
2023-01-10T05:13:05.231Z,1.80
2023-01-10T05:15:34.507Z,1.70
2023-01-10T05:18:02.939Z,2.10
2023-01-10T05:20:30.860Z,2.00
2023-01-10T05:22:58.762Z,1.60
2023-01-10T05:25:26.747Z,2.87
2023-01-10T05:27:55.140Z,1.97
2023-01-10T05:30:23.045Z,5.90
2023-01-10T05:32:52.258Z,1.50
2023-01-10T05:35:20.132Z,1.77
2023-01-10T05:37:47.962Z,1.90
2023-01-10T05:40:15.878Z,1.70
2023-01-10T05:42:43.754Z,2.00
2023-01-10T05:45:12.499Z,1.83
2023-01-10T05:47:40.470Z,1.93
2023-01-10T05:50:11.341Z,1.60
2023-01-10T05:52:39.292Z,2.03
2023-01-10T05:55:07.740Z,1.70
2023-01-10T05:57:35.675Z,1.67
2023-01-10T06:00:05.243Z,1.50
2023-01-10T06:02:39.488Z,1.40
2023-01-10T06:05:09.785Z,1.53
2023-01-10T06:07:38.272Z,1.60
2023-01-10T06:10:06.874Z,1.50
2023-01-10T06:12:34.706Z,1.53
2023-01-10T06:15:03.330Z,1.60
2023-01-10T06:17:31.431Z,1.50
2023-01-10T06:19:59.381Z,1.67
2023-01-10T06:22:28.921Z,1.70
2023-01-10T06:24:56.737Z,1.60
2023-01-10T06:27:24.605Z,1.57
2023-01-10T06:29:52.562Z,1.60
2023-01-10T06:32:20.434Z,1.50
2023-01-10T06:34:48.236Z,1.60
2023-01-10T06:37:16.079Z,3.10
2023-01-10T06:39:46.316Z,1.67
2023-01-10T06:42:14.267Z,1.80
2023-01-10T06:44:42.098Z,1.50
2023-01-10T06:47:10.204Z,1.70
2023-01-10T06:49:38.253Z,1.70
2023-01-10T06:52:06.463Z,2.23
2023-01-10T06:54:34.495Z,1.83
2023-01-10T06:57:04.752Z,2.23
2023-01-10T06:59:32.612Z,1.53
2023-01-10T07:02:00.517Z,1.80
2023-01-10T07:04:28.497Z,2.00
2023-01-10T07:06:56.344Z,1.93
2023-01-10T07:09:24.104Z,1.70
2023-01-10T07:11:51.969Z,1.90
2023-01-10T07:14:21.462Z,1.93
2023-01-10T07:16:49.417Z,1.80
2023-01-10T07:19:19.961Z,1.60
2023-01-10T07:21:47.794Z,1.77
2023-01-10T07:24:15.677Z,1.60
2023-01-10T07:26:43.521Z,1.70
2023-01-10T07:29:11.311Z,2.20
2023-01-10T07:31:40.615Z,2.10
2023-01-10T07:34:08.714Z,1.90
2023-01-10T07:36:39.297Z,1.70
2023-01-10T07:39:07.598Z,1.87
2023-01-10T07:41:35.407Z,2.00
2023-01-10T07:44:04.315Z,1.93
2023-01-10T07:46:32.254Z,1.70
2023-01-10T07:49:01.603Z,2.10
2023-01-10T07:51:29.604Z,2.30
2023-01-10T07:53:57.373Z,2.00
2023-01-10T07:56:25.471Z,1.97
2023-01-10T07:58:53.331Z,2.20
2023-01-10T08:01:21.221Z,2.47
2023-01-10T08:03:49.038Z,2.07
2023-01-10T08:06:18.326Z,2.03
2023-01-10T08:08:46.328Z,2.40
2023-01-10T08:11:14.249Z,2.43
2023-01-10T08:13:42.092Z,1.70
2023-01-10T08:16:10.182Z,2.77
2023-01-10T08:18:38.991Z,3.10
2023-01-10T08:21:07.168Z,2.03
2023-01-10T08:23:36.797Z,2.70
2023-01-10T08:26:05.838Z,1.87
2023-01-10T08:28:34.163Z,2.07
2023-01-10T08:31:06.808Z,2.40
2023-01-10T08:33:34.878Z,1.90
2023-01-10T08:36:02.728Z,2.00
2023-01-10T08:38:30.720Z,1.87
2023-01-10T08:40:59.943Z,1.80
2023-01-10T08:43:27.805Z,1.70
2023-01-10T08:45:55.593Z,2.20
2023-01-10T08:48:23.545Z,1.90
2023-01-10T08:50:51.455Z,2.20
2023-01-10T08:53:19.443Z,1.70
2023-01-10T08:55:47.282Z,1.80
2023-01-10T08:58:16.686Z,1.80
2023-01-10T09:00:45.048Z,1.70
2023-01-10T09:03:12.939Z,1.87
2023-01-10T09:05:41.971Z,2.00
2023-01-10T09:08:12.956Z,2.00
2023-01-10T09:10:41.606Z,1.90
2023-01-10T09:13:09.638Z,1.70
2023-01-10T09:15:39.713Z,2.00
2023-01-10T09:18:08.947Z,2.00
2023-01-10T09:20:38.225Z,2.40
2023-01-10T09:23:08.420Z,2.00
2023-01-10T09:25:36.991Z,2.30
2023-01-10T09:28:06.355Z,1.97
2023-01-10T09:30:34.557Z,2.20
2023-01-10T09:34:33.276Z,2.30
2023-01-10T09:37:01.221Z,2.30
2023-01-10T09:39:29.401Z,2.43
2023-01-10T09:42:12.559Z,2.77
2023-01-10T09:44:50.277Z,2.53
2023-01-10T09:47:25.900Z,2.80
2023-01-10T09:50:06.592Z,2.60
2023-01-10T09:52:39.468Z,2.40
2023-01-10T09:55:20.078Z,2.60
2023-01-10T09:57:48.993Z,2.77
2023-01-10T10:00:20.914Z,2.33
2023-01-10T10:02:53.210Z,3.00
2023-01-10T10:05:25.506Z,2.70
2023-01-10T10:07:56.125Z,3.50
2023-01-10T10:10:26.370Z,2.70
2023-01-10T10:13:26.408Z,2.40
2023-01-10T10:16:06.430Z,2.40
2023-01-10T10:18:45.784Z,2.50
2023-01-10T10:21:22.783Z,2.30
2023-01-10T10:24:07.628Z,2.40
2023-01-10T10:26:37.149Z,2.67
2023-01-10T10:29:37.555Z,3.07
2023-01-10T10:32:26.308Z,3.83
2023-01-10T10:35:00.024Z,3.07
2023-01-10T10:37:33.759Z,2.30
2023-01-10T10:40:04.730Z,2.20
2023-01-10T10:42:36.922Z,2.50
2023-01-10T10:45:08.685Z,2.47
2023-01-10T10:47:39.523Z,2.27
2023-01-10T10:50:20.457Z,2.10
2023-01-10T10:52:49.983Z,2.20
2023-01-10T10:55:22.088Z,2.93
2023-01-10T10:57:59.716Z,2.40
2023-01-10T11:00:29.693Z,3.10
2023-01-10T11:03:04.411Z,2.67
2023-01-10T11:05:37.569Z,2.30
2023-01-10T11:08:11.044Z,2.27
2023-01-10T11:10:40.381Z,2.30
2023-01-10T11:13:26.535Z,2.10
2023-01-10T11:15:56.227Z,2.07
2023-01-10T11:18:26.570Z,2.50
2023-01-10T11:21:00.771Z,2.00
2023-01-10T11:23:42.132Z,1.73
2023-01-10T11:26:23.234Z,2.00
2023-01-10T11:28:53.318Z,2.10
2023-01-10T11:31:29.218Z,1.90
2023-01-10T11:33:58.340Z,2.20
2023-01-10T11:36:26.360Z,2.07
2023-01-10T11:39:03.693Z,2.10
2023-01-10T11:41:34.413Z,1.80
2023-01-10T11:44:18.626Z,1.87
2023-01-10T11:46:48.251Z,1.80
2023-01-10T11:49:24.709Z,1.90
2023-01-10T11:51:57.737Z,2.00
2023-01-10T11:54:29.293Z,2.50
2023-01-10T11:56:59.762Z,1.60
2023-01-10T11:59:29.214Z,1.70
2023-01-10T12:02:04.702Z,1.77
2023-01-10T12:04:40.267Z,2.00
2023-01-10T12:07:10.614Z,2.20
2023-01-10T12:09:42.426Z,2.30
2023-01-10T12:12:22.784Z,1.90
2023-01-10T12:14:51.556Z,1.80
2023-01-10T12:17:24.281Z,2.20
2023-01-10T12:19:53.674Z,2.00
2023-01-10T12:22:28.010Z,2.17
2023-01-10T12:25:00.197Z,1.80
2023-01-10T12:27:30.883Z,1.83
2023-01-10T12:30:06.115Z,1.60
2023-01-10T12:32:43.141Z,1.70
2023-01-10T12:35:18.201Z,1.60
2023-01-10T12:37:52.449Z,1.90
2023-01-10T12:40:31.434Z,2.00
2023-01-10T12:43:23.721Z,2.00
2023-01-10T12:45:54.706Z,1.90
2023-01-10T12:48:28.600Z,1.80
2023-01-10T12:51:02.567Z,1.50
2023-01-10T12:53:34.221Z,1.60
2023-01-10T12:56:08.017Z,1.70
2023-01-10T12:58:42.974Z,2.10
2023-01-10T13:01:16.277Z,1.60
2023-01-10T13:03:46.590Z,2.20
2023-01-10T13:06:23.975Z,2.10
2023-01-10T13:08:53.170Z,1.80
2023-01-10T13:11:26.844Z,1.90
2023-01-10T13:13:59.915Z,2.23
2023-01-10T13:16:35.892Z,2.63
2023-01-10T13:19:07.125Z,1.80
2023-01-10T13:21:35.883Z,1.70
2023-01-10T13:24:05.923Z,2.37
2023-01-10T13:26:53.567Z,2.40
2023-01-10T13:29:24.147Z,2.87
2023-01-10T13:31:57.562Z,1.90
2023-01-10T13:34:28.457Z,2.00
2023-01-10T13:36:59.272Z,2.10
2023-01-10T13:39:33.108Z,2.27
2023-01-10T13:42:50.783Z,2.97
2023-01-10T13:45:27.156Z,1.80
2023-01-10T13:48:00.770Z,1.93
2023-01-10T13:50:50.836Z,2.20
2023-01-10T13:53:45.269Z,1.90
2023-01-10T13:56:34.892Z,2.10
2023-01-10T13:59:23.686Z,2.30
2023-01-10T14:02:10.659Z,2.20
2023-01-10T14:04:46.459Z,2.30
2023-01-10T14:07:22.914Z,2.50
2023-01-10T14:09:52.515Z,2.30
2023-01-10T14:12:28.104Z,2.70
2023-01-10T14:15:01.320Z,4.33
2023-01-10T14:17:31.197Z,2.43
2023-01-10T14:20:04.105Z,2.57
2023-01-10T14:22:34.262Z,4.90
2023-01-10T14:25:05.014Z,3.07
2023-01-10T14:27:44.552Z,2.07
2023-01-10T14:30:20.921Z,2.60
2023-01-10T14:32:52.142Z,2.40
2023-01-10T14:35:23.394Z,2.73
2023-01-10T14:37:55.910Z,2.50
2023-01-10T14:40:29.726Z,2.50
2023-01-10T14:43:00.501Z,2.60
2023-01-10T14:45:39.541Z,2.33
2023-01-10T14:48:27.124Z,2.87
2023-01-10T14:51:07.437Z,2.90
2023-01-10T14:53:35.523Z,2.57
2023-01-10T14:56:03.360Z,2.67
2023-01-10T14:58:31.426Z,2.67
2023-01-10T15:01:00.763Z,2.60
2023-01-10T15:03:28.650Z,3.03
2023-01-10T15:05:58.692Z,2.70
2023-01-10T15:08:31.300Z,2.90
2023-01-10T15:11:04.400Z,2.90
2023-01-10T15:13:36.663Z,3.40
2023-01-10T15:16:07.808Z,4.97
2023-01-10T15:18:40.709Z,5.40
2023-01-10T15:21:11.906Z,3.87
2023-01-10T15:23:41.655Z,3.40
2023-01-10T15:26:15.125Z,3.60
2023-01-10T15:28:48.545Z,6.40
2023-01-10T15:31:18.073Z,4.97
2023-01-10T15:33:56.280Z,4.13
2023-01-10T15:36:27.250Z,3.60
2023-01-10T15:38:55.916Z,4.20
2023-01-10T15:41:24.787Z,3.77
2023-01-10T15:43:54.483Z,3.83
2023-01-10T15:46:26.645Z,3.60
2023-01-10T15:48:56.469Z,4.13
2023-01-10T15:51:29.771Z,3.70
2023-01-10T15:54:03.796Z,3.37
2023-01-10T15:56:35.923Z,3.20
2023-01-10T15:59:05.566Z,4.30
2023-01-10T16:01:35.833Z,3.63
2023-01-10T16:04:06.113Z,3.80
2023-01-10T16:06:36.632Z,4.17
2023-01-10T16:09:08.194Z,3.70
2023-01-10T16:11:57.366Z,4.13
2023-01-10T16:14:25.412Z,4.40
2023-01-10T16:16:54.626Z,6.70
2023-01-10T16:19:22.842Z,4.00
2023-01-10T16:21:57.744Z,4.20
2023-01-10T16:24:27.865Z,3.60
2023-01-10T16:26:58.255Z,4.23
2023-01-10T16:29:26.077Z,4.20
2023-01-10T16:31:55.421Z,4.57
2023-01-10T16:34:24.456Z,3.60
2023-01-10T16:36:52.398Z,4.00
2023-01-10T16:39:22.573Z,4.33
2023-01-10T16:42:07.830Z,4.00
2023-01-10T16:44:35.919Z,4.37
2023-01-10T16:47:07.109Z,5.13
2023-01-10T16:49:35.164Z,4.60
2023-01-10T16:52:03.686Z,4.87
2023-01-10T16:54:35.370Z,4.13
2023-01-10T16:57:03.335Z,4.47
2023-01-10T16:59:31.366Z,4.40
2023-01-10T17:01:59.663Z,4.60
2023-01-10T17:04:32.717Z,5.23
2023-01-10T17:07:00.758Z,4.57
2023-01-10T17:09:30.321Z,4.80
2023-01-10T17:12:02.813Z,4.90
2023-01-10T17:14:33.219Z,5.03
2023-01-10T17:17:03.093Z,4.80
2023-01-10T17:19:32.752Z,5.80
2023-01-10T17:22:01.578Z,5.27
2023-01-10T17:24:29.954Z,5.23
2023-01-10T17:26:57.889Z,4.90
2023-01-10T17:29:25.701Z,5.40
2023-01-10T17:31:53.663Z,5.30
2023-01-10T17:34:21.924Z,5.40
2023-01-10T17:36:51.251Z,4.83
2023-01-10T17:39:19.170Z,5.70
2023-01-10T17:41:47.097Z,6.00
2023-01-10T17:44:15.079Z,5.20
2023-01-10T17:46:42.950Z,5.20
2023-01-10T17:49:13.223Z,5.13
2023-01-10T17:51:41.398Z,5.17
2023-01-10T17:54:10.666Z,8.07
2023-01-10T17:56:38.502Z,6.13
2023-01-10T17:59:06.501Z,4.33
2023-01-10T18:01:34.533Z,4.90
2023-01-10T18:04:02.799Z,4.63
2023-01-10T18:06:30.632Z,5.20
2023-01-10T18:09:01.074Z,5.20
2023-01-10T18:11:31.787Z,4.50
2023-01-10T18:13:59.848Z,4.33
2023-01-10T18:16:27.847Z,4.30
2023-01-10T18:18:57.032Z,4.13
2023-01-10T18:21:26.010Z,4.80
2023-01-10T18:23:56.923Z,5.07
2023-01-10T18:26:24.779Z,5.37
2023-01-10T18:28:54.239Z,5.13
2023-01-10T18:31:22.197Z,4.63
2023-01-10T18:33:53.644Z,4.93
2023-01-10T18:36:23.082Z,5.10
2023-01-10T18:38:51.878Z,4.90
2023-01-10T18:41:21.574Z,5.10
2023-01-10T18:43:49.750Z,5.63
2023-01-10T18:46:21.717Z,5.10
2023-01-10T18:48:52.861Z,5.13
2023-01-10T18:51:22.655Z,4.63
2023-01-10T18:53:52.831Z,5.67
2023-01-10T18:56:20.919Z,5.30
2023-01-10T18:58:48.840Z,5.00
2023-01-10T19:01:22.176Z,4.70
2023-01-10T19:03:50.923Z,4.13
2023-01-10T19:06:22.659Z,4.57
2023-01-10T19:08:51.707Z,4.77
2023-01-10T19:11:23.043Z,4.57
2023-01-10T19:13:53.889Z,5.23
2023-01-10T19:16:25.037Z,5.17
2023-01-10T19:18:54.912Z,5.00
2023-01-10T19:21:25.180Z,3.70
2023-01-10T19:23:56.485Z,4.40
2023-01-10T19:26:25.421Z,5.10
2023-01-10T19:28:53.782Z,3.80
2023-01-10T19:31:25.688Z,3.80
2023-01-10T19:33:54.743Z,3.70
2023-01-10T19:36:24.209Z,3.47
2023-01-10T19:38:55.329Z,4.90
2023-01-10T19:41:23.560Z,5.80
2023-01-10T19:43:58.161Z,4.57
2023-01-10T19:46:28.801Z,3.70
2023-01-10T19:48:57.467Z,3.47
2023-01-10T19:51:25.559Z,3.53
2023-01-10T19:53:54.330Z,3.43
2023-01-10T19:56:23.391Z,4.00
2023-01-10T19:58:51.666Z,3.70
2023-01-10T20:01:21.232Z,3.30
2023-01-10T20:03:50.743Z,3.03
2023-01-10T20:06:21.741Z,3.40
2023-01-10T20:08:50.018Z,3.60
2023-01-10T20:11:18.837Z,3.17
2023-01-10T20:13:48.322Z,3.13
2023-01-10T20:16:18.524Z,3.73
2023-01-10T20:18:46.905Z,4.30
2023-01-10T20:21:18.563Z,3.70
2023-01-10T20:23:48.189Z,4.00
2023-01-10T20:26:19.309Z,3.60
2023-01-10T20:28:48.518Z,3.23
2023-01-10T20:31:18.900Z,3.07
2023-01-10T20:33:47.244Z,3.93
2023-01-10T20:36:18.529Z,3.77
2023-01-10T20:38:46.685Z,3.80
2023-01-10T20:41:17.487Z,4.23
2023-01-10T20:43:45.978Z,4.10
2023-01-10T20:46:16.400Z,3.30
2023-01-10T20:48:44.745Z,3.70
2023-01-10T20:51:14.677Z,3.67
2023-01-10T20:53:44.261Z,3.40
2023-01-10T20:56:14.761Z,3.57
2023-01-10T20:58:42.975Z,3.70
2023-01-10T21:01:16.923Z,4.23
2023-01-10T21:03:48.185Z,4.00
2023-01-10T21:06:18.249Z,4.03
2023-01-10T21:08:48.788Z,3.97
2023-01-10T21:11:18.238Z,4.03
2023-01-10T21:13:46.155Z,3.83
2023-01-10T21:16:16.369Z,3.73
2023-01-10T21:18:44.922Z,4.17
2023-01-10T21:21:14.420Z,4.23
2023-01-10T21:23:42.941Z,3.80
2023-01-10T21:26:14.826Z,4.27
2023-01-10T21:28:46.589Z,3.30
2023-01-10T21:31:16.662Z,4.40
2023-01-10T21:33:44.890Z,4.30
2023-01-10T21:36:13.822Z,4.00
2023-01-10T21:38:42.344Z,3.37
2023-01-10T21:41:14.994Z,3.53
2023-01-10T21:43:44.429Z,4.30
2023-01-10T21:46:13.053Z,3.23
2023-01-10T21:48:41.047Z,4.33
2023-01-10T21:51:08.897Z,3.67
2023-01-10T21:53:37.060Z,3.67
2023-01-10T21:56:05.341Z,3.80
2023-01-10T21:58:34.659Z,3.30
2023-01-10T22:01:02.517Z,4.10
2023-01-10T22:03:31.321Z,4.30
2023-01-10T22:06:04.300Z,3.43
2023-01-10T22:08:32.698Z,3.30
2023-01-10T22:11:00.663Z,4.00
2023-01-10T22:13:28.595Z,3.13
2023-01-10T22:16:00.261Z,3.10
2023-01-10T22:18:28.688Z,3.23
2023-01-10T22:20:57.249Z,4.00
2023-01-10T22:23:25.836Z,3.30
2023-01-10T22:26:01.216Z,3.63
2023-01-10T22:28:29.998Z,3.80
2023-01-10T22:30:59.434Z,3.73
2023-01-10T22:33:29.845Z,4.07
2023-01-10T22:35:58.366Z,3.43
2023-01-10T22:38:26.228Z,3.83
2023-01-10T22:40:54.207Z,3.43
2023-01-10T22:43:22.090Z,4.47
2023-01-10T22:45:50.077Z,3.50
2023-01-10T22:48:19.465Z,3.50
2023-01-10T22:50:49.956Z,3.87
2023-01-10T22:53:17.965Z,3.67
2023-01-10T22:55:45.791Z,4.40
2023-01-10T22:58:13.764Z,3.97
2023-01-10T23:00:41.603Z,4.37
2023-01-10T23:03:09.725Z,4.00
2023-01-10T23:05:39.029Z,4.60
2023-01-10T23:08:06.918Z,4.37
2023-01-10T23:10:35.071Z,4.20
2023-01-10T23:13:04.968Z,3.90
2023-01-10T23:15:32.970Z,3.50
2023-01-10T23:18:01.030Z,4.27
2023-01-10T23:20:28.886Z,5.67
2023-01-10T23:22:58.130Z,4.70
2023-01-10T23:25:26.299Z,3.87
2023-01-10T23:27:54.356Z,4.00
2023-01-10T23:30:22.432Z,4.60
2023-01-10T23:32:51.207Z,4.20
2023-01-10T23:35:19.185Z,4.40
2023-01-10T23:37:47.047Z,4.37
2023-01-10T23:40:16.484Z,4.17
2023-01-10T23:42:44.412Z,3.97
2023-01-10T23:45:12.454Z,4.50
2023-01-10T23:47:40.673Z,4.40
2023-01-10T23:50:09.963Z,3.83
2023-01-10T23:52:37.901Z,3.57
2023-01-10T23:55:06.563Z,3.80
2023-01-10T23:57:35.847Z,3.87
